Time;durP1;ratioP1;P1;durP2;ratioP2;P2;SDS_P1;SDS_P2;PMS_P1;PMS_P2;Temp;Humidity;BMP_temperature;BMP_pressure;BME280_temperature;BME280_humidity;BME280_pressure;Samples;Min_cycle;Max_cycle;Signal;HPM_P1;HPM_P2
2022/11/04 00:02:09;;;;;;;7.60;1.80;;;;;;;;;;4904907;29;20063;-63
2022/11/04 00:04:40;;;;;;;6.32;2.30;;;;;;;;;;4895185;29;20060;-64
2022/11/04 00:10:01;;;;;;;8.68;1.92;;;;;;;;;;4891936;29;20538;-64
2022/11/04 00:12:32;;;;;;;6.43;2.05;;;;;;;;;;4876494;29;20057;-64
2022/11/04 00:17:18;;;;;;;5.82;2.45;;;;;;;;;;4880621;29;20057;-64
2022/11/04 00:17:58;;;;;;;5.20;2.08;;;;;;;;;;4932453;29;20047;-64
2022/11/04 00:28:57;;;;;;;8.20;2.40;;;;;;;;;;4894943;29;20455;-64
2022/11/04 00:34:18;;;;;;;9.05;2.55;;;;;;;;;;4860011;29;20057;-64
2022/11/04 00:36:48;;;;;;;7.40;2.20;;;;;;;;;;4876000;29;20057;-65
2022/11/04 00:39:20;;;;;;;8.52;1.70;;;;;;;;;;4872631;29;20064;-65
2022/11/04 00:41:51;;;;;;;4.78;1.95;;;;;;;;;;4853003;29;20052;-64
2022/11/04 00:44:22;;;;;;;5.10;1.98;;;;;;;;;;4881596;29;20536;-65
2022/11/04 00:46:53;;;;;;;5.57;1.90;;;;;;;;;;4890945;29;20068;-64
2022/11/04 00:49:25;;;;;;;3.58;1.77;;;;;;;;;;4894349;29;20059;-64
2022/11/04 00:51:56;;;;;;;6.80;2.17;;;;;;;;;;4879033;29;20056;-64
2022/11/04 00:54:27;;;;;;;6.57;2.00;;;;;;;;;;4913109;29;20048;-65
2022/11/04 00:56:57;;;;;;;6.40;1.83;;;;;;;;;;4897811;29;20060;-64
2022/11/04 00:59:28;;;;;;;5.07;1.92;;;;;;;;;;4913290;29;20067;-64
2022/11/04 01:01:58;;;;;;;5.55;1.98;;;;;;;;;;4897371;29;20056;-64
2022/11/04 01:04:30;;;;;;;5.40;2.20;;;;;;;;;;4921655;29;20060;-64
2022/11/04 01:07:01;;;;;;;6.15;2.58;;;;;;;;;;4932025;29;20059;-64
2022/11/04 01:09:32;;;;;;;7.28;2.15;;;;;;;;;;4932059;29;20055;-64
2022/11/04 01:12:03;;;;;;;4.57;2.10;;;;;;;;;;4950195;28;20058;-64
2022/11/04 01:14:34;;;;;;;7.32;2.40;;;;;;;;;;4950919;29;20551;-64
2022/11/04 01:17:05;;;;;;;9.15;2.63;;;;;;;;;;4951233;29;20082;-64
2022/11/04 01:19:35;;;;;;;7.53;2.78;;;;;;;;;;4961399;28;20054;-64
2022/11/04 01:22:07;;;;;;;9.68;2.80;;;;;;;;;;4970272;28;20530;-64
2022/11/04 01:24:38;;;;;;;6.70;2.60;;;;;;;;;;4923328;28;20471;-64
2022/11/04 01:27:09;;;;;;;6.15;2.65;;;;;;;;;;4970807;28;20438;-64
2022/11/04 01:29:39;;;;;;;8.85;2.88;;;;;;;;;;4954190;28;20629;-64
2022/11/04 01:32:10;;;;;;;10.93;3.05;;;;;;;;;;4980678;28;20499;-64
2022/11/04 01:34:42;;;;;;;8.13;2.47;;;;;;;;;;5047504;28;20053;-64
2022/11/04 01:37:13;;;;;;;11.10;2.88;;;;;;;;;;5048925;28;20048;-64
2022/11/04 01:39:44;;;;;;;7.88;2.72;;;;;;;;;;5028975;28;20062;-63
2022/11/04 01:42:15;;;;;;;8.15;2.88;;;;;;;;;;5008961;28;20524;-64
2022/11/04 01:45:14;;;;;;;5.30;2.42;;;;;;;;;;4953488;28;20521;-65
2022/11/04 01:48:16;;;;;;;7.65;2.97;;;;;;;;;;4931893;29;20052;-64
2022/11/04 01:50:48;;;;;;;6.22;2.47;;;;;;;;;;4884542;29;20056;-64
2022/11/04 01:53:41;;;;;;;7.18;2.60;;;;;;;;;;4918561;29;20072;-64
2022/11/04 01:56:14;;;;;;;17.83;3.45;;;;;;;;;;4898555;29;20052;-64
2022/11/04 01:58:51;;;;;;;9.57;3.08;;;;;;;;;;4890758;29;20060;-65
2022/11/04 02:01:21;;;;;;;9.18;3.45;;;;;;;;;;4897650;29;20064;-65
2022/11/04 02:04:24;;;;;;;9.00;3.65;;;;;;;;;;4859704;29;20107;-65
2022/11/04 02:06:49;;;;;;;7.70;2.92;;;;;;;;;;4873879;29;20068;-66
2022/11/04 02:09:20;;;;;;;11.70;3.40;;;;;;;;;;4878568;29;20510;-65
2022/11/04 02:14:41;;;;;;;10.25;3.70;;;;;;;;;;4897261;29;20063;-65
2022/11/04 02:17:18;;;;;;;9.75;3.13;;;;;;;;;;4905576;29;20071;-65
2022/11/04 02:20:18;;;;;;;8.02;2.63;;;;;;;;;;4900153;29;20060;-65
2022/11/04 02:23:12;;;;;;;12.52;3.33;;;;;;;;;;4925606;29;20059;-65
2022/11/04 02:26:06;;;;;;;8.45;3.05;;;;;;;;;;4934987;29;20059;-65
2022/11/04 02:29:11;;;;;;;7.07;2.97;;;;;;;;;;4939867;29;20522;-65
2022/11/04 02:31:58;;;;;;;6.97;2.50;;;;;;;;;;4965526;28;20058;-65
2022/11/04 02:35:06;;;;;;;14.77;3.15;;;;;;;;;;5007328;28;20050;-66
2022/11/04 02:37:57;;;;;;;9.35;3.65;;;;;;;;;;4992779;28;20055;-65
2022/11/04 02:40:32;;;;;;;8.43;3.22;;;;;;;;;;4995200;28;20050;-66
2022/11/04 02:43:30;;;;;;;9.73;3.10;;;;;;;;;;5031906;28;20405;-66
2022/11/04 02:46:15;;;;;;;10.35;2.70;;;;;;;;;;5031929;28;20452;-66
2022/11/04 02:49:00;;;;;;;8.82;2.88;;;;;;;;;;5006842;28;20057;-66
2022/11/04 02:51:42;;;;;;;;;;;;;;;;;;5022674;28;20053;-66
2022/11/04 02:54:47;;;;;;;12.40;2.85;;;;;;;;;;5071533;28;19920;-66
2022/11/04 02:57:23;;;;;;;7.57;2.65;;;;;;;;;;5011934;28;20066;-65
2022/11/04 02:59:57;;;;;;;6.22;2.85;;;;;;;;;;5011815;28;20429;-65
2022/11/04 03:02:59;;;;;;;9.82;3.42;;;;;;;;;;5011774;28;20050;-65
2022/11/04 03:05:34;;;;;;;8.68;3.08;;;;;;;;;;4992311;28;20407;-66
2022/11/04 03:08:14;;;;;;;8.20;2.83;;;;;;;;;;4991724;28;20065;-66
2022/11/04 03:10:52;;;;;;;9.88;3.15;;;;;;;;;;4992070;28;20518;-66
2022/11/04 03:13:33;;;;;;;9.07;2.90;;;;;;;;;;4991873;28;20054;-66
2022/11/04 03:16:10;;;;;;;8.23;2.83;;;;;;;;;;4975257;28;20054;-66
2022/11/04 03:19:11;;;;;;;6.32;2.55;;;;;;;;;;4991733;28;20557;-65
2022/11/04 03:22:11;;;;;;;10.57;3.03;;;;;;;;;;4956032;28;20053;-66
2022/11/04 03:24:44;;;;;;;8.23;2.72;;;;;;;;;;4880348;29;20079;-66
2022/11/04 03:27:40;;;;;;;8.73;2.85;;;;;;;;;;4896009;29;20060;-66
2022/11/04 03:30:18;;;;;;;13.93;3.17;;;;;;;;;;4865031;29;20064;-66
2022/11/04 03:33:03;;;;;;;8.13;2.45;;;;;;;;;;4879952;29;20048;-66
2022/11/04 03:35:34;;;;;;;9.05;3.20;;;;;;;;;;4952894;29;20062;-66
2022/11/04 03:38:04;;;;;;;7.53;2.80;;;;;;;;;;4905235;29;20542;-66
2022/11/04 03:40:34;;;;;;;9.98;2.70;;;;;;;;;;4952731;29;20055;-66
2022/11/04 03:43:18;;;;;;;9.35;3.33;;;;;;;;;;4967269;28;20148;-66
2022/11/04 03:45:50;;;;;;;8.65;3.40;;;;;;;;;;4952261;29;20503;-66
2022/11/04 03:48:22;;;;;;;10.05;3.05;;;;;;;;;;4920682;29;20063;-66
2022/11/04 03:50:52;;;;;;;6.60;2.80;;;;;;;;;;4952970;29;20403;-66
2022/11/04 03:53:24;;;;;;;9.82;3.30;;;;;;;;;;4920572;29;20066;-65
2022/11/04 03:56:14;;;;;;;6.65;3.00;;;;;;;;;;4952325;29;20513;-66
2022/11/04 03:59:23;;;;;;;12.65;3.38;;;;;;;;;;4962128;28;20065;-67
2022/11/04 04:01:56;;;;;;;6.85;2.90;;;;;;;;;;5028317;28;20053;-66
2022/11/04 04:04:35;;;;;;;9.55;3.10;;;;;;;;;;5050378;28;20061;-66
2022/11/04 04:07:23;;;;;;;12.38;3.10;;;;;;;;;;5050289;28;20071;-66
2022/11/04 04:10:37;;;;;;;8.18;3.25;;;;;;;;;;5050217;28;20060;-67
2022/11/04 04:13:13;;;;;;;9.13;2.83;;;;;;;;;;5050185;28;20053;-66
2022/11/04 04:15:50;;;;;;;18.38;3.22;;;;;;;;;;5050240;28;20048;-66
2022/11/04 04:18:46;;;;;;;7.45;3.13;;;;;;;;;;5002761;28;20413;-66
2022/11/04 04:21:25;;;;;;;8.50;3.15;;;;;;;;;;5050056;28;20071;-66
2022/11/04 04:29:37;;;;;;;10.55;2.90;;;;;;;;;;5112689;28;20047;-66
2022/11/04 04:32:09;;;;;;;6.78;3.50;;;;;;;;;;5112606;28;20039;-66
2022/11/04 04:34:39;;;;;;;8.07;2.58;;;;;;;;;;5095140;28;20051;-66
2022/11/04 04:37:20;;;;;;;8.10;3.17;;;;;;;;;;5112663;28;20399;-66
2022/11/04 04:45:47;;;;;;;6.35;2.78;;;;;;;;;;5076839;28;20078;-66
2022/11/04 04:48:17;;;;;;;5.22;2.67;;;;;;;;;;5076729;28;20392;-67
2022/11/04 04:50:54;;;;;;;8.63;2.83;;;;;;;;;;5076485;28;20491;-67
2022/11/04 04:53:25;;;;;;;7.93;3.05;;;;;;;;;;5112627;28;20044;-66
2022/11/04 04:55:54;;;;;;;7.22;2.50;;;;;;;;;;5112298;28;20044;-66
2022/11/04 04:58:25;;;;;;;8.38;2.58;;;;;;;;;;5094679;28;20052;-67
2022/11/04 05:00:55;;;;;;;8.25;2.70;;;;;;;;;;5112281;28;20058;-67
2022/11/04 05:03:25;;;;;;;5.90;2.60;;;;;;;;;;5035853;28;20048;-67
2022/11/04 05:05:59;;;;;;;7.80;2.92;;;;;;;;;;5068886;28;20570;-67
2022/11/04 05:08:29;;;;;;;6.28;2.85;;;;;;;;;;5069266;28;20057;-67
2022/11/04 05:11:00;;;;;;;6.55;2.80;;;;;;;;;;5052304;28;20048;-67
2022/11/04 05:13:30;;;;;;;6.40;2.67;;;;;;;;;;4992829;28;20053;-67
2022/11/04 05:16:06;;;;;;;6.80;2.53;;;;;;;;;;5009219;28;20058;-67
2022/11/04 05:18:38;;;;;;;7.53;2.60;;;;;;;;;;4977054;28;20064;-67
2022/11/04 05:21:11;;;;;;;6.55;2.80;;;;;;;;;;5009432;28;20057;-67
2022/11/04 05:23:42;;;;;;;8.55;2.67;;;;;;;;;;4977534;28;20499;-67
2022/11/04 05:26:13;;;;;;;6.45;3.08;;;;;;;;;;4993045;28;20088;-67
2022/11/04 05:28:44;;;;;;;6.55;2.47;;;;;;;;;;5009420;28;20405;-67
2022/11/04 05:31:15;;;;;;;6.78;2.50;;;;;;;;;;5011579;28;20061;-67
2022/11/04 05:33:45;;;;;;;7.35;2.80;;;;;;;;;;4997340;28;20061;-67
2022/11/04 05:36:16;;;;;;;8.77;2.60;;;;;;;;;;5013215;28;20529;-67
2022/11/04 05:38:51;;;;;;;8.40;2.80;;;;;;;;;;5013536;28;20061;-67
2022/11/04 05:41:27;;;;;;;9.30;2.33;;;;;;;;;;5001221;28;20050;-66
2022/11/04 05:44:02;;;;;;;7.40;2.95;;;;;;;;;;5046493;28;20047;-67
2022/11/04 05:46:32;;;;;;;6.80;2.72;;;;;;;;;;5064555;28;20062;-66
2022/11/04 05:49:02;;;;;;;5.95;2.83;;;;;;;;;;5063212;28;20055;-67
2022/11/04 05:51:33;;;;;;;6.82;2.63;;;;;;;;;;5064360;28;20052;-67
2022/11/04 05:54:04;;;;;;;6.50;2.42;;;;;;;;;;5115973;28;20047;-67
2022/11/04 05:56:34;;;;;;;7.07;3.05;;;;;;;;;;5115663;28;20039;-67
2022/11/04 05:59:04;;;;;;;8.35;3.13;;;;;;;;;;5097663;28;20380;-67
2022/11/04 06:01:37;;;;;;;5.93;2.97;;;;;;;;;;5115401;28;20047;-67
2022/11/04 06:04:10;;;;;;;7.30;2.92;;;;;;;;;;5115776;28;20039;-66
2022/11/04 06:06:40;;;;;;;8.35;3.03;;;;;;;;;;5115678;28;20580;-66
2022/11/04 06:09:11;;;;;;;7.30;2.42;;;;;;;;;;5115457;28;20043;-66
2022/11/04 06:11:42;;;;;;;6.90;2.75;;;;;;;;;;5079111;28;20063;-67
2022/11/04 06:14:12;;;;;;;5.80;2.65;;;;;;;;;;5115295;28;20054;-67
2022/11/04 06:16:46;;;;;;;6.15;2.70;;;;;;;;;;5115327;28;20069;-66
2022/11/04 06:19:16;;;;;;;6.65;2.92;;;;;;;;;;5115502;28;20458;-66
2022/11/04 06:21:48;;;;;;;9.90;2.65;;;;;;;;;;5031954;28;20053;-67
2022/11/04 06:24:18;;;;;;;5.32;2.30;;;;;;;;;;5016032;28;20542;-66
2022/11/04 06:26:48;;;;;;;6.30;2.90;;;;;;;;;;5032249;28;20100;-67
2022/11/04 06:29:18;;;;;;;7.45;3.00;;;;;;;;;;5032389;28;20060;-67
2022/11/04 06:31:48;;;;;;;10.52;3.65;;;;;;;;;;5015871;28;20072;-67
2022/11/04 06:34:18;;;;;;;7.68;3.53;;;;;;;;;;4983404;28;20445;-66
2022/11/04 06:36:49;;;;;;;9.95;4.10;;;;;;;;;;4982877;28;20045;-66
2022/11/04 06:39:20;;;;;;;8.02;3.58;;;;;;;;;;5032071;28;20053;-66
2022/11/04 06:41:50;;;;;;;8.75;3.70;;;;;;;;;;4998596;28;20473;-66
2022/11/04 06:44:23;;;;;;;8.27;4.10;;;;;;;;;;5031982;28;20053;-66
2022/11/04 06:46:53;;;;;;;7.47;3.45;;;;;;;;;;5031914;28;20057;-66
2022/11/04 06:49:24;;;;;;;7.80;3.42;;;;;;;;;;5031769;28;20453;-66
2022/11/04 06:51:54;;;;;;;6.88;3.20;;;;;;;;;;5001525;28;20053;-66
2022/11/04 06:54:24;;;;;;;6.93;3.05;;;;;;;;;;5031619;28;20050;-66
2022/11/04 06:56:54;;;;;;;6.70;2.80;;;;;;;;;;5031534;28;20054;-66
2022/11/04 06:59:24;;;;;;;7.00;2.92;;;;;;;;;;5051895;28;20389;-66
2022/11/04 07:01:54;;;;;;;6.80;2.72;;;;;;;;;;5055029;28;20074;-67
2022/11/04 07:04:24;;;;;;;7.03;2.78;;;;;;;;;;5022004;28;20081;-66
2022/11/04 07:06:54;;;;;;;8.52;3.00;;;;;;;;;;5038318;28;20052;-67
2022/11/04 07:09:24;;;;;;;7.32;3.40;;;;;;;;;;5038127;28;20048;-67
2022/11/04 07:11:54;;;;;;;9.00;3.45;;;;;;;;;;5037952;28;20060;-66
2022/11/04 07:14:24;;;;;;;7.07;3.33;;;;;;;;;;5037966;28;20056;-67
2022/11/04 07:16:54;;;;;;;7.70;3.00;;;;;;;;;;5071100;28;20045;-67
2022/11/04 07:19:24;;;;;;;8.05;3.13;;;;;;;;;;5071166;28;20063;-66
2022/11/04 07:21:54;;;;;;;5.85;2.70;;;;;;;;;;5071015;28;20045;-66
2022/11/04 07:24:23;;;;;;;6.32;2.88;;;;;;;;;;5071276;28;20501;-66
2022/11/04 07:26:56;;;;;;;7.95;3.00;;;;;;;;;;5071157;28;20056;-66
2022/11/04 07:29:26;;;;;;;;;;;;;;;;;;5038242;28;20063;-67
2022/11/04 07:31:56;;;;;;;10.95;3.53;;;;;;;;;;5090777;28;19927;-66
2022/11/04 07:34:27;;;;;;;8.75;3.28;;;;;;;;;;5078300;28;20072;-66
2022/11/04 07:36:57;;;;;;;8.60;3.15;;;;;;;;;;5078111;28;20522;-66
2022/11/04 07:39:27;;;;;;;10.48;3.50;;;;;;;;;;5113702;28;20035;-66
2022/11/04 07:41:58;;;;;;;8.63;2.67;;;;;;;;;;5113679;28;20039;-66
2022/11/04 07:44:28;;;;;;;9.00;3.05;;;;;;;;;;5113755;28;20039;-66
2022/11/04 07:46:58;;;;;;;10.02;3.00;;;;;;;;;;5070461;28;20048;-66
2022/11/04 07:49:28;;;;;;;7.38;2.70;;;;;;;;;;5054323;28;20060;-66
2022/11/04 07:51:58;;;;;;;6.88;3.00;;;;;;;;;;5020819;28;20063;-66
2022/11/04 07:54:28;;;;;;;7.32;3.33;;;;;;;;;;5069616;28;20056;-67
2022/11/04 07:56:59;;;;;;;9.57;3.65;;;;;;;;;;5020813;28;20413;-66
2022/11/04 07:59:29;;;;;;;12.90;4.00;;;;;;;;;;5070565;28;20501;-66
2022/11/04 08:01:59;;;;;;;6.05;3.05;;;;;;;;;;5070582;28;20044;-67
2022/11/04 08:04:29;;;;;;;8.43;3.45;;;;;;;;;;5070224;28;20064;-66
2022/11/04 08:06:59;;;;;;;8.80;3.08;;;;;;;;;;5070480;28;20052;-66
2022/11/04 08:09:29;;;;;;;8.93;3.08;;;;;;;;;;5070197;28;20528;-66
2022/11/04 08:11:59;;;;;;;10.07;3.45;;;;;;;;;;5070304;28;20393;-66
2022/11/04 08:14:29;;;;;;;4.78;2.47;;;;;;;;;;5070192;28;20052;-66
2022/11/04 08:17:00;;;;;;;5.93;2.83;;;;;;;;;;5069966;28;20048;-66
2022/11/04 08:19:31;;;;;;;4.78;2.30;;;;;;;;;;5070096;28;20052;-66
2022/11/04 08:22:01;;;;;;;8.75;2.53;;;;;;;;;;5070162;28;20044;-66
2022/11/04 08:24:31;;;;;;;5.80;2.60;;;;;;;;;;5090055;28;20059;-66
2022/11/04 08:27:06;;;;;;;6.22;2.88;;;;;;;;;;5090048;28;20399;-66
2022/11/04 08:29:36;;;;;;;5.60;2.40;;;;;;;;;;5039984;28;20059;-66
2022/11/04 08:32:09;;;;;;;6.80;2.63;;;;;;;;;;5069602;28;20129;-66
2022/11/04 08:34:41;;;;;;;7.35;2.45;;;;;;;;;;5053508;28;20056;-66
2022/11/04 08:37:15;;;;;;;7.75;3.00;;;;;;;;;;5069862;28;20055;-66
2022/11/04 08:39:46;;;;;;;6.43;2.58;;;;;;;;;;5069272;28;20064;-66
2022/11/04 08:42:16;;;;;;;6.18;2.25;;;;;;;;;;5004016;28;20056;-66
2022/11/04 08:44:49;;;;;;;7.38;2.70;;;;;;;;;;5069509;28;20056;-66
2022/11/04 08:47:20;;;;;;;7.57;2.53;;;;;;;;;;5069922;28;20047;-66
2022/11/04 08:49:50;;;;;;;7.38;2.85;;;;;;;;;;5069494;28;20052;-66
2022/11/04 08:52:20;;;;;;;7.22;2.85;;;;;;;;;;5052594;28;20052;-66
2022/11/04 08:54:53;;;;;;;6.53;2.85;;;;;;;;;;5052638;28;20056;-66
2022/11/04 08:57:25;;;;;;;9.52;3.30;;;;;;;;;;5069396;28;20052;-66
2022/11/04 08:59:55;;;;;;;5.93;2.53;;;;;;;;;;5052742;28;20424;-66
2022/11/04 09:02:26;;;;;;;11.63;2.30;;;;;;;;;;5069443;28;20057;-66
2022/11/04 09:04:56;;;;;;;6.40;2.58;;;;;;;;;;5081669;28;20531;-66
2022/11/04 09:07:26;;;;;;;7.47;2.78;;;;;;;;;;5089698;28;20056;-66
2022/11/04 09:09:56;;;;;;;9.15;2.65;;;;;;;;;;5102391;28;20059;-66
2022/11/04 09:12:26;;;;;;;6.93;2.70;;;;;;;;;;5112316;28;20040;-66
2022/11/04 09:14:56;;;;;;;10.75;3.33;;;;;;;;;;5112050;28;20040;-66
2022/11/04 09:17:26;;;;;;;9.70;4.72;;;;;;;;;;5112245;28;20093;-66
2022/11/04 09:19:56;;;;;;;10.73;3.97;;;;;;;;;;5072673;28;20063;-66
2022/11/04 09:22:26;;;;;;;8.10;3.75;;;;;;;;;;5091850;28;20437;-66
2022/11/04 09:24:57;;;;;;;8.73;3.58;;;;;;;;;;5090568;28;20040;-66
2022/11/04 09:27:27;;;;;;;8.65;3.92;;;;;;;;;;5091789;28;20040;-66
2022/11/04 09:29:57;;;;;;;9.45;3.85;;;;;;;;;;5090523;28;20872;-66
2022/11/04 09:32:28;;;;;;;9.32;3.83;;;;;;;;;;5055691;28;20047;-65
2022/11/04 09:34:58;;;;;;;7.20;3.78;;;;;;;;;;4996086;28;20049;-65
2022/11/04 09:37:28;;;;;;;11.02;3.50;;;;;;;;;;5029048;28;20418;-65
2022/11/04 09:39:58;;;;;;;8.57;3.28;;;;;;;;;;5029058;28;20053;-65
2022/11/04 09:42:49;;;;;;;7.95;3.50;;;;;;;;;;5029180;28;20045;-65
2022/11/04 09:45:25;;;;;;;7.07;3.20;;;;;;;;;;4980152;28;20069;-65
2022/11/04 09:48:00;;;;;;;7.50;3.30;;;;;;;;;;4980365;28;20064;-65
2022/11/04 09:50:40;;;;;;;8.68;3.33;;;;;;;;;;5008957;28;20406;-66
2022/11/04 09:53:46;;;;;;;7.28;3.35;;;;;;;;;;5028949;28;20550;-65
2022/11/04 09:56:24;;;;;;;6.93;3.40;;;;;;;;;;4970161;28;20055;-65
2022/11/04 09:58:55;;;;;;;7.13;2.65;;;;;;;;;;4970187;28;20051;-65
2022/11/04 10:01:55;;;;;;;6.47;2.83;;;;;;;;;;4969989;28;20050;-65
2022/11/04 10:04:51;;;;;;;8.82;2.88;;;;;;;;;;4953884;28;20043;-65
2022/11/04 10:07:44;;;;;;;6.43;3.30;;;;;;;;;;4884492;29;20100;-66
2022/11/04 10:10:35;;;;;;;7.05;3.35;;;;;;;;;;4931707;29;20055;-65
2022/11/04 10:13:17;;;;;;;6.80;3.15;;;;;;;;;;4931716;29;20051;-66
2022/11/04 10:16:21;;;;;;;9.45;3.20;;;;;;;;;;4899885;29;20410;-65
2022/11/04 10:19:30;;;;;;;8.48;3.13;;;;;;;;;;4953814;29;20499;-65
2022/11/04 10:22:28;;;;;;;11.80;3.13;;;;;;;;;;4935077;29;20059;-64
2022/11/04 10:25:03;;;;;;;9.25;3.00;;;;;;;;;;4934133;29;20059;-64
2022/11/04 10:27:37;;;;;;;6.68;3.33;;;;;;;;;;4934886;29;20830;-64
2022/11/04 10:30:24;;;;;;;7.88;3.95;;;;;;;;;;4930716;29;20056;-65
2022/11/04 10:33:13;;;;;;;8.95;3.70;;;;;;;;;;4929586;29;20062;-64
2022/11/04 10:36:06;;;;;;;7.07;3.70;;;;;;;;;;4969714;28;20055;-64
2022/11/04 10:38:56;;;;;;;7.10;3.10;;;;;;;;;;4957746;28;20387;-64
2022/11/04 10:41:39;;;;;;;9.90;4.50;;;;;;;;;;4957057;28;20062;-64
2022/11/04 10:44:39;;;;;;;11.27;4.85;;;;;;;;;;5003179;28;20049;-64
2022/11/04 10:47:20;;;;;;;7.45;3.75;;;;;;;;;;4973038;28;20062;-64
2022/11/04 10:50:12;;;;;;;6.72;3.20;;;;;;;;;;4957660;28;20066;-64
2022/11/04 10:53:11;;;;;;;7.82;3.22;;;;;;;;;;4973141;28;20535;-63
2022/11/04 10:56:10;;;;;;;5.95;3.00;;;;;;;;;;4976433;28;20069;-64
2022/11/04 10:58:47;;;;;;;5.50;2.20;;;;;;;;;;4960732;28;20054;-64
2022/11/04 11:01:32;;;;;;;5.88;2.50;;;;;;;;;;4992716;28;20398;-64
2022/11/04 11:04:07;;;;;;;1.90;1.05;;;;;;;;;;4992296;28;20062;-64
2022/11/04 11:06:38;;;;;;;4.40;1.80;;;;;;;;;;4934263;29;20058;-64
2022/11/04 11:09:11;;;;;;;5.70;2.08;;;;;;;;;;4934268;29;20099;-65
2022/11/04 11:11:46;;;;;;;4.47;2.10;;;;;;;;;;4934185;29;20067;-64
2022/11/04 11:14:33;;;;;;;3.72;1.80;;;;;;;;;;4934389;29;20058;-65
2022/11/04 11:17:33;;;;;;;3.42;1.50;;;;;;;;;;4934134;29;20059;-64
2022/11/04 11:20:21;;;;;;;3.63;2.05;;;;;;;;;;4895941;29;20063;-64
2022/11/04 11:22:53;;;;;;;3.95;1.50;;;;;;;;;;4849738;29;20525;-64
2022/11/04 11:25:34;;;;;;;3.22;1.25;;;;;;;;;;4991922;28;20062;-64
2022/11/04 11:28:08;;;;;;;5.05;2.88;;;;;;;;;;4927943;28;20078;-65
2022/11/04 11:30:45;;;;;;;14.60;7.32;;;;;;;;;;4959624;28;20058;-63
2022/11/04 11:33:34;;;;;;;9.02;3.78;;;;;;;;;;4991961;28;20513;-64
2022/11/04 11:36:11;;;;;;;3.72;2.20;;;;;;;;;;4991621;28;20054;-64
2022/11/04 11:39:04;;;;;;;3.38;1.35;;;;;;;;;;4991573;28;20065;-65
2022/11/04 11:41:48;;;;;;;9.77;2.20;;;;;;;;;;4991517;28;20090;-64
2022/11/04 11:44:32;;;;;;;5.15;1.80;;;;;;;;;;5022955;28;20068;-64
2022/11/04 11:47:05;;;;;;;5.35;1.50;;;;;;;;;;5050811;28;20531;-65
2022/11/04 11:49:37;;;;;;;2.97;1.25;;;;;;;;;;4958835;28;20046;-64
2022/11/04 11:52:28;;;;;;;3.63;1.88;;;;;;;;;;4991601;28;20426;-64
2022/11/04 11:55:10;;;;;;;3.83;1.40;;;;;;;;;;4991041;28;20042;-64
2022/11/04 11:57:48;;;;;;;3.47;1.23;;;;;;;;;;5010373;28;20146;-64
2022/11/04 12:01:17;;;;;;;2.75;1.30;;;;;;;;;;5030621;28;20053;-64
2022/11/04 12:03:53;;;;;;;3.25;1.20;;;;;;;;;;4991217;28;20054;-64
2022/11/04 12:06:57;;;;;;;4.20;1.40;;;;;;;;;;4996685;28;20521;-64
2022/11/04 12:10:04;;;;;;;4.30;1.40;;;;;;;;;;5010835;28;20058;-64
2022/11/04 12:12:53;;;;;;;3.47;1.20;;;;;;;;;;4995700;28;20637;-64
2022/11/04 12:15:56;;;;;;;3.47;1.48;;;;;;;;;;4994170;28;20066;-64
2022/11/04 12:19:04;;;;;;;2.55;1.10;;;;;;;;;;4990354;28;20529;-64
2022/11/04 12:21:56;;;;;;;2.85;1.50;;;;;;;;;;4984675;28;20062;-64
2022/11/04 12:24:54;;;;;;;5.05;1.55;;;;;;;;;;4990597;28;20051;-63
2022/11/04 12:27:49;;;;;;;4.43;1.63;;;;;;;;;;4990685;28;20046;-64
2022/11/04 12:30:23;;;;;;;3.90;1.40;;;;;;;;;;4974272;28;20058;-63
2022/11/04 12:33:09;;;;;;;4.00;1.40;;;;;;;;;;4990611;28;20050;-64
2022/11/04 12:36:13;;;;;;;3.15;1.55;;;;;;;;;;4990241;28;20412;-64
2022/11/04 12:39:08;;;;;;;4.63;1.70;;;;;;;;;;4989799;28;20046;-64
2022/11/04 12:41:56;;;;;;;5.18;1.70;;;;;;;;;;4976970;28;20061;-65
2022/11/04 12:44:58;;;;;;;2.60;1.67;;;;;;;;;;5010145;28;20056;-64
2022/11/04 12:47:36;;;;;;;3.92;1.77;;;;;;;;;;5009987;28;20552;-64
2022/11/04 12:50:06;;;;;;;;;;;;;;;;;;5010274;28;20058;-64
2022/11/04 12:52:59;;;;;;;4.93;1.45;;;;;;;;;;5009937;28;19922;-64
2022/11/04 12:55:39;;;;;;;3.53;1.17;;;;;;;;;;4991863;28;20045;-64
2022/11/04 12:58:26;;;;;;;2.35;1.23;;;;;;;;;;5017405;28;20057;-65
2022/11/04 13:01:32;;;;;;;3.75;1.45;;;;;;;;;;4985714;28;20524;-64
2022/11/04 13:04:23;;;;;;;3.40;1.20;;;;;;;;;;5029185;28;20402;-65
2022/11/04 13:07:02;;;;;;;4.32;1.40;;;;;;;;;;5029303;28;20064;-64
2022/11/04 13:09:55;;;;;;;2.75;1.70;;;;;;;;;;5029440;28;20057;-65
2022/11/04 13:12:32;;;;;;;4.05;1.50;;;;;;;;;;5029305;28;20050;-64
2022/11/04 13:15:13;;;;;;;2.88;1.13;;;;;;;;;;5029386;28;20068;-64
2022/11/04 13:17:45;;;;;;;2.97;0.95;;;;;;;;;;4977140;28;20192;-64
2022/11/04 13:20:48;;;;;;;3.80;1.33;;;;;;;;;;4992621;28;20532;-65
2022/11/04 13:23:27;;;;;;;2.63;1.30;;;;;;;;;;4976827;28;20046;-64
2022/11/04 13:25:58;;;;;;;3.67;0.95;;;;;;;;;;5009599;28;21081;-65
2022/11/04 13:28:28;;;;;;;4.78;1.30;;;;;;;;;;4993114;28;20062;-64
2022/11/04 13:31:17;;;;;;;4.40;1.10;;;;;;;;;;4976759;28;20058;-64
2022/11/04 13:34:09;;;;;;;2.50;1.17;;;;;;;;;;5046400;28;20057;-64
2022/11/04 13:37:10;;;;;;;3.97;1.30;;;;;;;;;;4999769;28;20049;-64
2022/11/04 13:39:58;;;;;;;3.03;1.10;;;;;;;;;;5049565;28;20048;-65
2022/11/04 13:42:40;;;;;;;5.38;1.40;;;;;;;;;;5087859;28;20052;-65
2022/11/04 13:45:14;;;;;;;2.88;1.27;;;;;;;;;;5091739;28;20414;-64
2022/11/04 13:47:53;;;;;;;5.55;1.50;;;;;;;;;;5072820;28;20529;-65
2022/11/04 13:50:37;;;;;;;5.13;1.10;;;;;;;;;;5091395;28;20048;-64
2022/11/04 13:53:10;;;;;;;3.75;1.33;;;;;;;;;;5076327;28;20066;-65
2022/11/04 13:55:50;;;;;;;2.25;1.23;;;;;;;;;;5095425;28;20040;-64
2022/11/04 13:58:29;;;;;;;3.75;1.50;;;;;;;;;;5055633;28;20522;-64
2022/11/04 14:01:22;;;;;;;2.97;1.25;;;;;;;;;;5019393;28;20049;-64
2022/11/04 14:04:24;;;;;;;3.20;1.52;;;;;;;;;;5036066;28;20061;-64
2022/11/04 14:07:02;;;;;;;4.18;1.50;;;;;;;;;;5002984;28;20064;-65
2022/11/04 14:09:41;;;;;;;3.35;1.50;;;;;;;;;;5019877;28;20053;-65
2022/11/04 14:12:17;;;;;;;6.28;1.65;;;;;;;;;;5035987;28;20054;-64
2022/11/04 14:14:51;;;;;;;2.85;1.33;;;;;;;;;;5052619;28;20394;-65
2022/11/04 14:17:35;;;;;;;5.18;1.55;;;;;;;;;;5052391;28;20065;-67
2022/11/04 14:20:05;;;;;;;3.15;1.33;;;;;;;;;;5052467;28;20052;-64
2022/11/04 14:22:44;;;;;;;3.83;1.42;;;;;;;;;;5018861;28;20512;-64
2022/11/04 14:25:38;;;;;;;3.80;1.40;;;;;;;;;;5052451;28;20548;-64
2022/11/04 14:28:10;;;;;;;2.65;1.33;;;;;;;;;;5052216;28;20052;-64
2022/11/04 14:30:53;;;;;;;3.08;1.33;;;;;;;;;;5052174;28;20092;-65
2022/11/04 14:33:28;;;;;;;2.75;1.33;;;;;;;;;;5052161;28;20049;-66
2022/11/04 14:36:20;;;;;;;1.98;1.30;;;;;;;;;;5072733;28;20159;-65
2022/11/04 14:39:12;;;;;;;4.45;1.45;;;;;;;;;;5093616;28;20407;-64
2022/11/04 14:41:59;;;;;;;1.73;1.17;;;;;;;;;;5094686;28;20044;-65
2022/11/04 14:44:35;;;;;;;3.40;1.20;;;;;;;;;;5094328;28;20048;-65
2022/11/04 14:47:27;;;;;;;2.13;0.98;;;;;;;;;;5075650;28;20051;-63
2022/11/04 14:49:58;;;;;;;3.22;1.30;;;;;;;;;;5071517;28;20049;-64
2022/11/04 14:52:52;;;;;;;3.45;1.33;;;;;;;;;;5051451;28;20158;-65
2022/11/04 14:55:39;;;;;;;2.58;1.40;;;;;;;;;;5051857;28;20076;-64
2022/11/04 14:58:29;;;;;;;3.75;1.60;;;;;;;;;;5031305;28;20053;-65
2022/11/04 15:01:06;;;;;;;5.38;1.88;;;;;;;;;;4975725;28;20050;-65
2022/11/04 15:03:38;;;;;;;3.22;1.33;;;;;;;;;;4959442;28;20062;-65
2022/11/04 15:06:29;;;;;;;2.63;1.30;;;;;;;;;;4992207;28;20055;-64
2022/11/04 15:09:26;;;;;;;2.00;0.95;;;;;;;;;;4992273;28;20055;-65
2022/11/04 15:14:59;;;;;;;2.40;0.93;;;;;;;;;;4991964;28;20465;-65
2022/11/04 15:17:33;;;;;;;1.48;0.80;;;;;;;;;;4944056;28;20054;-65
2022/11/04 15:20:03;;;;;;;2.78;1.20;;;;;;;;;;4975843;28;20046;-63
2022/11/04 15:22:34;;;;;;;2.55;1.40;;;;;;;;;;4991948;28;20073;-64
2022/11/04 15:25:10;;;;;;;2.40;1.42;;;;;;;;;;4976059;28;20093;-65
2022/11/04 15:27:41;;;;;;;3.85;1.30;;;;;;;;;;5013261;28;20053;-65
2022/11/04 15:30:27;;;;;;;4.18;1.45;;;;;;;;;;5031012;28;20057;-64
2022/11/04 15:33:02;;;;;;;3.15;1.20;;;;;;;;;;5031326;28;20057;-65
2022/11/04 15:35:33;;;;;;;1.77;0.95;;;;;;;;;;4997853;28;20046;-66
2022/11/04 15:38:04;;;;;;;2.47;1.17;;;;;;;;;;5041651;28;20060;-66
2022/11/04 15:40:34;;;;;;;3.97;1.42;;;;;;;;;;5070645;28;20064;-67
2022/11/04 15:43:06;;;;;;;4.72;1.00;;;;;;;;;;5070993;28;20067;-65
2022/11/04 15:45:41;;;;;;;2.95;1.27;;;;;;;;;;5054517;28;20083;-63
2022/11/04 15:48:36;;;;;;;3.60;1.10;;;;;;;;;;5070980;28;20072;-64
2022/11/04 15:51:20;;;;;;;4.30;1.25;;;;;;;;;;5070736;28;20064;-65
2022/11/04 15:53:59;;;;;;;3.28;1.35;;;;;;;;;;5070466;28;20057;-64
2022/11/04 15:56:38;;;;;;;4.07;0.82;;;;;;;;;;5033793;28;20049;-63
2022/11/04 15:59:13;;;;;;;4.03;1.52;;;;;;;;;;5050254;28;20064;-64
2022/11/04 16:01:48;;;;;;;5.13;1.00;;;;;;;;;;5017419;28;20496;-64
2022/11/04 16:04:23;;;;;;;3.00;1.08;;;;;;;;;;5050710;28;20701;-64
2022/11/04 16:07:08;;;;;;;3.78;1.42;;;;;;;;;;5050201;28;20049;-67
2022/11/04 16:09:47;;;;;;;2.75;0.93;;;;;;;;;;5050221;28;20064;-65
2022/11/04 16:12:25;;;;;;;1.58;0.80;;;;;;;;;;5033424;28;20049;-66
2022/11/04 16:14:58;;;;;;;5.55;1.30;;;;;;;;;;5049636;28;20057;-65
2022/11/04 16:17:31;;;;;;;2.70;0.93;;;;;;;;;;5000400;28;20523;-64
2022/11/04 16:20:07;;;;;;;1.30;0.80;;;;;;;;;;5058587;28;20063;-67
2022/11/04 16:22:39;;;;;;;2.17;0.73;;;;;;;;;;5069989;28;20071;-63